Time;durP1;ratioP1;P1;durP2;ratioP2;P2;SDS_P1;SDS_P2;PMS_P1;PMS_P2;Temp;Humidity;BMP_temperature;BMP_pressure;BME280_temperature;BME280_humidity;BME280_pressure;Samples;Min_cycle;Max_cycle;Signal;HPM_P1;HPM_P2
2021/07/17 00:00:27;;;;;;;8.88;3.90;;;18.50;84.90;;;;;;2057376;28;20038;-86
2021/07/17 00:01:28;;;;;;;6.70;3.50;;;18.50;84.90;;;;;;2073803;28;20538;-86
2021/07/17 00:02:29;;;;;;;9.13;3.85;;;18.50;85.00;;;;;;2081677;28;20496;-86
2021/07/17 00:03:29;;;;;;;9.25;3.58;;;18.50;85.00;;;;;;2073389;28;20370;-86
2021/07/17 00:04:30;;;;;;;9.35;3.75;;;18.50;85.00;;;;;;2057159;28;20109;-86
2021/07/17 00:05:32;;;;;;;7.97;3.45;;;18.50;85.00;;;;;;2057195;28;20033;-87
2021/07/17 00:06:33;;;;;;;8.80;3.78;;;18.50;85.00;;;;;;2065339;28;20041;-86
2021/07/17 00:07:33;;;;;;;9.20;3.72;;;18.50;85.00;;;;;;2055668;28;20030;-86
2021/07/17 00:08:34;;;;;;;8.00;3.65;;;18.50;85.00;;;;;;2064165;28;20031;-86
2021/07/17 00:09:35;;;;;;;7.93;3.88;;;18.50;85.10;;;;;;2065258;28;20523;-86
2021/07/17 00:10:39;;;;;;;7.18;3.72;;;18.50;85.10;;;;;;2056832;28;20509;-87
2021/07/17 00:11:40;;;;;;;6.80;3.50;;;18.50;85.10;;;;;;2066537;28;20022;-86
2021/07/17 00:12:42;;;;;;;8.30;3.88;;;18.50;85.00;;;;;;2065259;28;20023;-86
2021/07/17 00:13:42;;;;;;;8.30;3.45;;;18.50;85.00;;;;;;2065274;28;20031;-86
2021/07/17 00:14:43;;;;;;;5.75;3.50;;;18.50;85.00;;;;;;2057170;28;20039;-86
2021/07/17 00:15:44;;;;;;;7.57;3.38;;;18.50;85.10;;;;;;2065130;28;20026;-87
2021/07/17 00:16:45;;;;;;;8.15;3.90;;;18.50;85.10;;;;;;2065189;28;20484;-86
2021/07/17 00:17:46;;;;;;;7.55;3.35;;;18.50;85.10;;;;;;2072639;28;20053;-86
2021/07/17 00:18:47;;;;;;;8.82;3.60;;;18.50;85.10;;;;;;2065265;28;20062;-87
2021/07/17 00:19:47;;;;;;;8.20;3.58;;;18.50;85.10;;;;;;2065142;28;20072;-86
2021/07/17 00:20:49;;;;;;;10.98;4.00;;;18.50;85.10;;;;;;2073314;28;20022;-86
2021/07/17 00:21:49;;;;;;;9.00;3.58;;;18.50;85.10;;;;;;2073083;28;20052;-85
2021/07/17 00:22:50;;;;;;;7.85;3.67;;;18.50;85.10;;;;;;2064965;28;20034;-86
2021/07/17 00:23:52;;;;;;;6.80;3.85;;;18.50;85.70;;;;;;2057299;28;20115;-86
2021/07/17 00:24:52;;;;;;;6.82;3.53;;;18.50;85.20;;;;;;2072891;28;20498;-86
2021/07/17 00:25:55;;;;;;;10.57;4.05;;;18.50;85.20;;;;;;2049141;29;20027;-86
2021/07/17 00:26:55;;;;;;;8.57;3.75;;;18.50;85.20;;;;;;2051009;28;20525;-86
2021/07/17 00:27:58;;;;;;;9.90;3.80;;;18.50;85.20;;;;;;2056932;28;20082;-86
2021/07/17 00:28:58;;;;;;;6.80;3.33;;;18.50;85.20;;;;;;2063708;28;20030;-86
2021/07/17 00:29:59;;;;;;;7.47;3.33;;;18.50;85.30;;;;;;2065199;28;20463;-86
2021/07/17 00:31:00;;;;;;;8.73;3.70;;;18.50;85.30;;;;;;2069970;28;20026;-86
2021/07/17 00:32:00;;;;;;;9.35;3.47;;;18.40;85.20;;;;;;2065184;28;20034;-85
2021/07/17 00:33:01;;;;;;;7.90;3.83;;;18.50;85.30;;;;;;2057017;28;20027;-86
2021/07/17 00:34:02;;;;;;;9.45;4.10;;;18.40;85.30;;;;;;2049343;28;20054;-86
2021/07/17 00:35:05;;;;;;;8.20;3.50;;;18.40;85.30;;;;;;2081327;28;20033;-86
2021/07/17 00:36:05;;;;;;;7.82;3.47;;;18.40;85.40;;;;;;2065144;28;20029;-86
2021/07/17 00:37:06;;;;;;;6.93;3.53;;;18.40;85.40;;;;;;2066244;28;20105;-86
2021/07/17 00:38:07;;;;;;;8.00;3.60;;;18.40;85.80;;;;;;2073008;28;20104;-86
2021/07/17 00:39:07;;;;;;;9.13;3.75;;;18.40;85.50;;;;;;2074665;28;20026;-86
2021/07/17 00:40:10;;;;;;;10.32;4.32;;;18.30;85.40;;;;;;2081294;28;20041;-86
2021/07/17 00:41:10;;;;;;;8.43;3.63;;;18.30;85.50;;;;;;2064843;28;20408;-86
2021/07/17 00:42:11;;;;;;;8.60;4.10;;;18.30;85.50;;;;;;2049207;28;20110;-86
2021/07/17 00:43:11;;;;;;;8.60;4.07;;;18.30;85.60;;;;;;2073182;28;20029;-86
2021/07/17 00:44:13;;;;;;;8.63;3.95;;;18.30;85.60;;;;;;2064972;28;20030;-86
2021/07/17 00:45:14;;;;;;;8.52;3.75;;;18.30;85.70;;;;;;2049163;28;20055;-86
2021/07/17 00:46:14;;;;;;;9.45;4.22;;;18.20;85.70;;;;;;2057300;28;20531;-86
2021/07/17 00:47:15;;;;;;;8.18;3.65;;;18.30;85.70;;;;;;2061322;28;20126;-86
2021/07/17 00:48:16;;;;;;;8.98;3.95;;;18.20;85.70;;;;;;2064606;28;20054;-86
2021/07/17 00:49:20;;;;;;;9.75;3.78;;;18.20;85.70;;;;;;2065053;28;20429;-86
2021/07/17 00:50:22;;;;;;;9.10;3.63;;;18.20;85.80;;;;;;2073346;28;20025;-86
2021/07/17 00:51:26;;;;;;;8.73;3.72;;;18.20;85.90;;;;;;2065095;28;20054;-86
2021/07/17 00:52:26;;;;;;;8.07;3.90;;;18.20;85.90;;;;;;2057007;28;20023;-86
2021/07/17 00:53:27;;;;;;;7.93;3.70;;;18.20;86.00;;;;;;2057408;28;20606;-86
2021/07/17 00:54:30;;;;;;;9.40;4.07;;;18.20;86.10;;;;;;2056934;28;20117;-86
2021/07/17 00:55:33;;;;;;;7.05;3.80;;;18.20;86.00;;;;;;2064944;28;20030;-86
2021/07/17 00:56:35;;;;;;;7.13;3.63;;;18.20;86.00;;;;;;2067649;28;20412;-86
2021/07/17 00:57:37;;;;;;;11.43;3.83;;;18.20;86.00;;;;;;2072751;28;20403;-87
2021/07/17 00:58:41;;;;;;;8.65;4.20;;;18.10;86.00;;;;;;2073403;28;20042;-86
2021/07/17 00:59:43;;;;;;;8.80;3.92;;;18.20;86.70;;;;;;2081255;28;20021;-86
2021/07/17 01:00:44;;;;;;;8.98;3.38;;;18.10;86.00;;;;;;2072840;28;20026;-86
2021/07/17 01:01:47;;;;;;;9.35;4.05;;;18.10;86.00;;;;;;2064796;28;20130;-87
2021/07/17 01:02:51;;;;;;;8.55;3.90;;;18.10;86.00;;;;;;2057543;28;20113;-86
2021/07/17 01:03:53;;;;;;;8.48;3.60;;;18.10;86.10;;;;;;2065316;28;20050;-86
2021/07/17 01:04:55;;;;;;;7.07;3.38;;;18.10;86.10;;;;;;2057036;28;20031;-86
2021/07/17 01:05:56;;;;;;;9.05;4.47;;;18.10;86.10;;;;;;2049410;28;20035;-86
2021/07/17 01:06:58;;;;;;;8.80;4.00;;;18.10;86.20;;;;;;2063219;28;20034;-87
2021/07/17 01:07:59;;;;;;;8.23;4.10;;;18.10;86.10;;;;;;2057100;28;20026;-87
2021/07/17 01:09:00;;;;;;;9.18;3.83;;;18.10;86.20;;;;;;2050591;28;20027;-87
2021/07/17 01:10:02;;;;;;;8.32;3.90;;;18.10;86.20;;;;;;2049034;28;20034;-87
2021/07/17 01:11:04;;;;;;;7.75;3.90;;;18.00;86.10;;;;;;2057344;28;20058;-86
2021/07/17 01:12:04;;;;;;;9.98;4.00;;;18.10;86.20;;;;;;2064844;28;20033;-86
2021/07/17 01:13:06;;;;;;;7.13;3.90;;;18.00;86.20;;;;;;2065273;28;20082;-86
2021/07/17 01:14:07;;;;;;;11.48;4.18;;;18.00;86.20;;;;;;2081286;28;20097;-86
2021/07/17 01:15:08;;;;;;;13.02;4.30;;;18.00;86.20;;;;;;2073112;28;20034;-86
2021/07/17 01:16:09;;;;;;;8.45;3.90;;;18.00;86.20;;;;;;2073199;28;20023;-86
2021/07/17 01:17:11;;;;;;;8.88;4.18;;;18.00;86.30;;;;;;2064973;28;20534;-86
2021/07/17 01:18:12;;;;;;;11.15;4.35;;;17.90;86.40;;;;;;2073018;28;20400;-86
2021/07/17 01:19:13;;;;;;;8.38;3.80;;;17.90;86.40;;;;;;2072943;28;20038;-86
2021/07/17 01:20:17;;;;;;;9.73;4.00;;;17.90;86.40;;;;;;2072920;28;20010;-86
2021/07/17 01:21:19;;;;;;;9.80;4.05;;;17.90;86.40;;;;;;2073327;28;20121;-86
2021/07/17 01:22:20;;;;;;;9.25;3.97;;;17.90;86.40;;;;;;2064880;28;20046;-86
2021/07/17 01:23:21;;;;;;;7.43;3.78;;;17.90;86.50;;;;;;2048868;28;20071;-86
2021/07/17 01:24:23;;;;;;;7.07;4.00;;;17.90;86.50;;;;;;2057031;28;20051;-85
2021/07/17 01:25:27;;;;;;;8.60;4.07;;;17.90;86.50;;;;;;2065058;28;20396;-86
2021/07/17 01:26:27;;;;;;;9.02;3.70;;;17.90;86.60;;;;;;2073202;28;20018;-86
2021/07/17 01:27:28;;;;;;;8.50;3.97;;;17.90;86.60;;;;;;2073129;28;20440;-86
2021/07/17 01:28:29;;;;;;;7.35;4.00;;;17.90;86.60;;;;;;2056763;28;20122;-86
2021/07/17 01:29:29;;;;;;;9.52;4.05;;;17.90;86.60;;;;;;2057018;28;20031;-85
2021/07/17 01:30:33;;;;;;;9.60;3.85;;;17.90;86.50;;;;;;2072177;28;20103;-86
2021/07/17 01:31:34;;;;;;;9.45;4.07;;;17.90;86.50;;;;;;2065299;28;20093;-86
2021/07/17 01:32:35;;;;;;;6.85;3.78;;;17.90;86.40;;;;;;2064752;28;20057;-86
2021/07/17 01:33:36;;;;;;;9.30;4.05;;;17.90;86.40;;;;;;2064384;28;20023;-86
2021/07/17 01:34:37;;;;;;;7.55;3.58;;;17.90;86.40;;;;;;2071773;28;20059;-86
2021/07/17 01:35:38;;;;;;;7.65;3.67;;;17.90;86.40;;;;;;2069914;28;20052;-86
2021/07/17 01:36:38;;;;;;;6.80;3.67;;;17.90;86.40;;;;;;2056712;28;20698;-86
2021/07/17 01:37:40;;;;;;;7.05;3.60;;;17.90;86.40;;;;;;2049027;28;20020;-86
2021/07/17 01:38:41;;;;;;;8.65;4.03;;;17.90;86.40;;;;;;2072929;28;20909;-86
2021/07/17 01:39:42;;;;;;;6.60;3.60;;;17.90;86.40;;;;;;2064800;28;20041;-86
2021/07/17 01:40:48;;;;;;;7.82;3.67;;;17.90;86.40;;;;;;2067660;28;20424;-86
2021/07/17 01:41:49;;;;;;;7.38;3.42;;;17.90;86.50;;;;;;2066396;28;20471;-86
2021/07/17 01:42:52;;;;;;;7.20;3.55;;;17.80;86.40;;;;;;2064538;28;20162;-86
2021/07/17 01:43:55;;;;;;;9.68;4.05;;;17.90;86.50;;;;;;2065315;28;20041;-86
2021/07/17 01:44:56;;;;;;;7.32;4.00;;;17.90;87.00;;;;;;2056851;28;20448;-86
2021/07/17 01:45:58;;;;;;;8.35;3.55;;;17.90;86.40;;;;;;2064472;28;20041;-86
2021/07/17 01:46:59;;;;;;;6.03;3.25;;;17.90;86.40;;;;;;2072689;28;20069;-86
2021/07/17 01:47:59;;;;;;;7.45;3.70;;;17.90;86.40;;;;;;2064407;28;20479;-87
2021/07/17 01:49:00;;;;;;;8.60;3.42;;;17.90;86.50;;;;;;2056201;28;20031;-86
2021/07/17 01:50:01;;;;;;;6.45;3.55;;;17.90;86.50;;;;;;2065042;28;20030;-86
2021/07/17 01:51:02;;;;;;;8.30;4.00;;;17.90;86.50;;;;;;2081578;28;20090;-86
2021/07/17 01:52:03;;;;;;;8.65;3.65;;;17.90;86.50;;;;;;2082526;28;20024;-86
2021/07/17 01:53:05;;;;;;;7.03;3.72;;;17.90;86.50;;;;;;2074008;28;20427;-86
2021/07/17 01:54:06;;;;;;;8.55;3.47;;;17.90;86.50;;;;;;2074487;28;20491;-85
2021/07/17 01:55:08;;;;;;;7.28;3.90;;;17.90;86.50;;;;;;2065994;28;20030;-86
2021/07/17 01:56:08;;;;;;;7.07;3.58;;;17.90;86.50;;;;;;2072196;28;20045;-86
2021/07/17 01:57:09;;;;;;;8.32;4.20;;;17.90;86.50;;;;;;2065933;28;20800;-86
2021/07/17 01:58:10;;;;;;;7.40;3.80;;;17.90;86.50;;;;;;2057131;28;20015;-85
2021/07/17 01:59:11;;;;;;;8.73;4.05;;;17.90;86.50;;;;;;2074310;28;20068;-86
2021/07/17 02:00:12;;;;;;;7.57;3.88;;;17.90;86.40;;;;;;2074455;28;20022;-86
2021/07/17 02:01:13;;;;;;;7.45;3.90;;;17.90;86.50;;;;;;2067785;28;20504;-86
2021/07/17 02:02:14;;;;;;;8.70;4.50;;;17.90;86.60;;;;;;2073635;28;20014;-86
2021/07/17 02:03:15;;;;;;;9.23;4.00;;;17.90;86.50;;;;;;2065933;28;20030;-86
2021/07/17 02:04:15;;;;;;;7.38;3.50;;;17.90;86.50;;;;;;2066286;28;20030;-86
2021/07/17 02:05:17;;;;;;;6.25;3.35;;;17.80;86.40;;;;;;2068571;28;20062;-86
2021/07/17 02:06:28;;;;;;;7.90;3.45;;;17.80;86.40;;;;;;2055039;28;20058;-86
2021/07/17 02:07:29;;;;;;;8.52;3.90;;;17.80;86.40;;;;;;2068742;28;20538;-86
2021/07/17 02:08:31;;;;;;;7.75;3.85;;;17.80;86.40;;;;;;2074174;28;20025;-86
2021/07/17 02:09:32;;;;;;;9.88;4.10;;;17.80;86.50;;;;;;2074477;28;20034;-86
2021/07/17 02:10:35;;;;;;;8.00;3.72;;;17.80;86.50;;;;;;2066192;28;20041;-85
2021/07/17 02:11:35;;;;;;;11.63;3.88;;;17.80;86.50;;;;;;2066610;28;20026;-86
2021/07/17 02:12:54;;;;;;;8.38;3.60;;;17.80;86.50;;;;;;2066527;28;20027;-85
2021/07/17 02:13:55;;;;;;;8.52;4.15;;;17.80;86.60;;;;;;2076893;28;20085;-86
2021/07/17 02:14:56;;;;;;;6.65;3.75;;;17.80;86.60;;;;;;2058608;28;20035;-86
2021/07/17 02:15:57;;;;;;;7.78;3.53;;;17.80;86.60;;;;;;2062619;28;20405;-87
2021/07/17 02:16:58;;;;;;;8.15;3.80;;;17.80;86.60;;;;;;2069203;28;20042;-84
2021/07/17 02:17:59;;;;;;;7.32;3.83;;;17.70;86.50;;;;;;2076384;28;20060;-85
2021/07/17 02:19:09;;;;;;;8.75;4.00;;;17.80;86.60;;;;;;2077286;28;20080;-84
2021/07/17 02:20:11;;;;;;;8.45;3.83;;;17.80;86.50;;;;;;2071878;28;20058;-84
2021/07/17 02:21:13;;;;;;;8.75;3.70;;;17.80;86.50;;;;;;2076520;28;20484;-84
2021/07/17 02:22:14;;;;;;;8.70;3.90;;;17.80;86.50;;;;;;2069195;28;20113;-83
2021/07/17 02:23:15;;;;;;;7.93;3.72;;;17.80;86.50;;;;;;2061096;28;20033;-84
2021/07/17 02:24:17;;;;;;;8.23;3.85;;;17.80;86.50;;;;;;2045614;28;20028;-84
2021/07/17 02:25:18;;;;;;;8.18;3.85;;;17.80;86.50;;;;;;2059526;28;20027;-84
2021/07/17 02:26:19;;;;;;;8.55;3.90;;;17.80;86.50;;;;;;2073153;28;20088;-84
2021/07/17 02:27:19;;;;;;;7.13;3.83;;;17.80;86.50;;;;;;2066100;28;20089;-84
2021/07/17 02:28:20;;;;;;;6.35;3.45;;;17.80;86.50;;;;;;2073343;28;20454;-84
2021/07/17 02:29:21;;;;;;;7.82;4.15;;;17.80;86.50;;;;;;2080938;28;20029;-84
2021/07/17 02:30:22;;;;;;;7.43;3.47;;;17.80;86.50;;;;;;2074408;28;20041;-84
2021/07/17 02:31:23;;;;;;;6.95;3.33;;;17.80;86.50;;;;;;2065935;28;20404;-84
2021/07/17 02:32:24;;;;;;;6.57;3.60;;;17.80;86.50;;;;;;2057954;28;20130;-83
2021/07/17 02:33:24;;;;;;;8.82;3.88;;;17.80;86.60;;;;;;2065904;28;20023;-84
2021/07/17 02:34:25;;;;;;;8.10;3.95;;;17.80;86.60;;;;;;2068768;28;20029;-84
2021/07/17 02:35:26;;;;;;;9.75;4.10;;;17.80;86.60;;;;;;2065949;28;20034;-83
2021/07/17 02:36:26;;;;;;;11.00;4.57;;;17.80;86.60;;;;;;2057741;28;20027;-84
2021/07/17 02:37:27;;;;;;;8.23;3.78;;;17.80;86.60;;;;;;2057882;28;20034;-84
2021/07/17 02:38:28;;;;;;;10.18;4.13;;;17.80;86.60;;;;;;2057741;28;20111;-84
2021/07/17 02:39:28;;;;;;;10.00;3.95;;;17.80;86.60;;;;;;2074184;28;20034;-84
2021/07/17 02:40:29;;;;;;;10.27;3.80;;;17.80;86.60;;;;;;2065677;28;20153;-84
2021/07/17 02:41:30;;;;;;;9.27;3.78;;;17.80;86.60;;;;;;2065902;28;20026;-84
2021/07/17 02:42:32;;;;;;;11.02;4.32;;;17.80;86.60;;;;;;2065757;28;20404;-84
2021/07/17 02:43:32;;;;;;;10.55;4.10;;;17.80;86.60;;;;;;2074421;28;20064;-85
2021/07/17 02:44:33;;;;;;;8.57;3.83;;;17.70;86.50;;;;;;2073838;28;20060;-84
2021/07/17 02:45:34;;;;;;;8.73;3.80;;;17.70;86.60;;;;;;2056961;28;20023;-84
2021/07/17 02:46:34;;;;;;;8.68;3.75;;;17.70;86.70;;;;;;2065587;28;20034;-84
2021/07/17 02:47:35;;;;;;;10.40;4.15;;;17.70;86.80;;;;;;2065724;28;20113;-85
2021/07/17 02:48:36;;;;;;;9.68;4.38;;;17.70;86.80;;;;;;2067879;28;20050;-83
2021/07/17 02:49:36;;;;;;;8.27;4.00;;;17.70;86.90;;;;;;2065836;28;20221;-84
2021/07/17 02:50:37;;;;;;;12.05;4.20;;;17.70;86.90;;;;;;2065737;28;20031;-84
2021/07/17 02:51:38;;;;;;;10.88;4.60;;;17.60;87.00;;;;;;2065868;28;20026;-83
2021/07/17 02:52:38;;;;;;;7.68;3.55;;;17.70;86.90;;;;;;2082065;28;20052;-84
2021/07/17 02:53:39;;;;;;;10.38;4.03;;;17.70;87.00;;;;;;2073785;28;20037;-84
2021/07/17 02:54:40;;;;;;;8.18;3.50;;;17.60;86.90;;;;;;2049688;29;20055;-83
2021/07/17 02:55:40;;;;;;;10.65;4.18;;;17.70;87.00;;;;;;2064789;28;20034;-83
2021/07/17 02:56:41;;;;;;;9.07;3.70;;;17.70;87.00;;;;;;2057794;28;20023;-84
2021/07/17 02:57:42;;;;;;;9.60;4.25;;;17.60;87.00;;;;;;2065852;28;20041;-84
2021/07/17 02:58:43;;;;;;;7.82;3.95;;;17.70;87.00;;;;;;2065214;28;20085;-83
2021/07/17 02:59:43;;;;;;;9.80;4.00;;;17.60;87.00;;;;;;2067814;28;20085;-84
2021/07/17 03:00:44;;;;;;;8.65;4.00;;;17.60;87.10;;;;;;2052246;29;20591;-83
2021/07/17 03:01:44;;;;;;;9.52;4.57;;;17.60;87.10;;;;;;2052210;28;20102;-83
2021/07/17 03:02:45;;;;;;;9.93;3.88;;;17.60;87.10;;;;;;2066796;28;20831;-85
2021/07/17 03:03:46;;;;;;;7.20;3.47;;;17.60;87.10;;;;;;2060155;28;20534;-83
2021/07/17 03:04:46;;;;;;;10.43;4.13;;;17.60;87.10;;;;;;2071930;28;20120;-84
2021/07/17 03:05:47;;;;;;;6.65;3.65;;;17.60;87.10;;;;;;2054294;28;20015;-84
2021/07/17 03:06:48;;;;;;;10.85;4.28;;;17.60;87.20;;;;;;2057572;28;20477;-83
2021/07/17 03:07:48;;;;;;;8.32;3.83;;;17.60;87.20;;;;;;2065613;28;20030;-84
2021/07/17 03:08:49;;;;;;;10.43;4.00;;;17.60;87.30;;;;;;2065681;28;20042;-84
2021/07/17 03:09:50;;;;;;;9.10;3.72;;;17.50;87.30;;;;;;2049646;28;20070;-84
2021/07/17 03:10:53;;;;;;;7.53;3.67;;;17.50;87.40;;;;;;2073670;28;20033;-84
2021/07/17 03:11:53;;;;;;;9.40;3.83;;;17.50;87.50;;;;;;2082069;28;20067;-84
2021/07/17 03:12:54;;;;;;;9.43;3.88;;;17.50;87.50;;;;;;2073803;28;20566;-83
2021/07/17 03:13:56;;;;;;;6.93;3.80;;;17.50;87.50;;;;;;2065560;28;20149;-83
2021/07/17 03:14:57;;;;;;;8.88;4.35;;;17.50;87.50;;;;;;2058040;28;20085;-84
2021/07/17 03:15:58;;;;;;;9.88;3.60;;;17.50;87.60;;;;;;2065430;28;20072;-84
2021/07/17 03:16:59;;;;;;;8.95;4.20;;;17.50;87.70;;;;;;2057574;28;20074;-84
2021/07/17 03:18:00;;;;;;;9.63;3.85;;;17.50;87.60;;;;;;2057650;28;20528;-84
2021/07/17 03:19:01;;;;;;;10.38;4.32;;;17.50;87.70;;;;;;2057212;28;20022;-84
2021/07/17 03:20:02;;;;;;;8.60;3.85;;;17.50;87.70;;;;;;2049710;28;20031;-84
2021/07/17 03:21:02;;;;;;;8.52;3.80;;;17.40;87.70;;;;;;2049599;28;20035;-84
2021/07/17 03:22:04;;;;;;;11.35;4.10;;;17.40;87.80;;;;;;2057632;28;20125;-84
2021/07/17 03:23:05;;;;;;;7.85;3.75;;;17.40;87.80;;;;;;2057460;28;20018;-84
2021/07/17 03:24:06;;;;;;;6.93;3.42;;;17.40;87.80;;;;;;2057824;28;20113;-84
2021/07/17 03:25:08;;;;;;;8.73;3.88;;;17.40;87.90;;;;;;2058231;28;20031;-83
2021/07/17 03:26:08;;;;;;;7.22;3.45;;;17.40;87.80;;;;;;2064740;28;20031;-84
2021/07/17 03:27:09;;;;;;;7.82;3.72;;;17.40;87.90;;;;;;2057569;28;20549;-84
2021/07/17 03:28:10;;;;;;;7.55;3.63;;;17.40;87.90;;;;;;2057520;28;20031;-84
2021/07/17 03:29:10;;;;;;;8.27;4.00;;;17.40;87.90;;;;;;2065344;28;20477;-84
2021/07/17 03:30:12;;;;;;;11.40;3.95;;;17.40;88.00;;;;;;2065753;28;20405;-84
2021/07/17 03:31:12;;;;;;;13.05;3.95;;;17.30;88.00;;;;;;2080820;28;20128;-84
2021/07/17 03:32:13;;;;;;;7.90;3.67;;;17.30;88.00;;;;;;2073689;28;20121;-84
2021/07/17 03:33:14;;;;;;;8.55;3.58;;;17.30;88.10;;;;;;2063883;28;20065;-84
2021/07/17 03:34:15;;;;;;;9.52;3.80;;;17.30;88.20;;;;;;2049327;29;20027;-84
2021/07/17 03:35:15;;;;;;;9.50;3.65;;;17.20;88.20;;;;;;2051141;28;20035;-85
2021/07/17 03:36:16;;;;;;;8.20;3.83;;;17.30;89.00;;;;;;2065303;28;20400;-84
2021/07/17 03:37:16;;;;;;;9.00;3.95;;;17.20;88.40;;;;;;2073394;28;20587;-84
2021/07/17 03:38:17;;;;;;;6.72;3.80;;;17.20;88.50;;;;;;2072946;28;20054;-84
2021/07/17 03:39:18;;;;;;;8.88;4.03;;;17.20;88.60;;;;;;2057328;28;20035;-84
2021/07/17 03:40:18;;;;;;;9.23;4.03;;;17.20;88.60;;;;;;2063581;28;20053;-85
2021/07/17 03:41:20;;;;;;;8.95;3.72;;;17.20;88.60;;;;;;2073665;28;20492;-84
2021/07/17 03:42:20;;;;;;;7.85;3.83;;;17.20;88.70;;;;;;2073420;28;20064;-84
2021/07/17 03:43:21;;;;;;;7.88;3.80;;;17.10;88.70;;;;;;2057350;28;20039;-85
2021/07/17 03:44:26;;;;;;;9.68;4.10;;;17.10;88.80;;;;;;2057568;28;20366;-84
2021/07/17 03:45:27;;;;;;;9.15;3.70;;;17.10;88.80;;;;;;2063432;28;20042;-84
2021/07/17 03:46:28;;;;;;;8.07;3.72;;;17.10;88.90;;;;;;2066163;28;20022;-83
2021/07/17 03:47:28;;;;;;;8.02;3.63;;;17.10;88.90;;;;;;2055031;28;20489;-84
2021/07/17 03:48:29;;;;;;;8.45;3.75;;;17.10;88.90;;;;;;2057155;28;20055;-84
2021/07/17 03:49:30;;;;;;;9.70;3.80;;;17.10;88.90;;;;;;2057472;28;20062;-84
2021/07/17 03:50:31;;;;;;;8.25;4.05;;;17.10;88.90;;;;;;2065444;28;20477;-84
2021/07/17 03:51:31;;;;;;;7.50;3.70;;;17.10;88.90;;;;;;2065190;28;20022;-84
2021/07/17 03:52:32;;;;;;;9.02;3.95;;;17.10;88.90;;;;;;2065329;28;20022;-85
2021/07/17 03:53:33;;;;;;;8.65;4.00;;;17.10;89.00;;;;;;2065403;28;20452;-84
2021/07/17 03:54:34;;;;;;;7.80;4.18;;;17.00;89.00;;;;;;2067271;28;20030;-84
2021/07/17 03:55:34;;;;;;;11.25;4.30;;;17.00;89.00;;;;;;2065082;28;20378;-84
2021/07/17 03:56:35;;;;;;;9.57;4.10;;;17.00;89.00;;;;;;2049614;28;20035;-84
2021/07/17 03:57:36;;;;;;;9.40;4.30;;;17.00;89.10;;;;;;2057511;28;20069;-85
2021/07/17 03:58:36;;;;;;;8.23;3.60;;;16.90;89.10;;;;;;2066879;28;20019;-84
2021/07/17 03:59:37;;;;;;;8.57;3.70;;;16.90;89.20;;;;;;2065492;28;20237;-84
2021/07/17 04:00:38;;;;;;;9.25;3.88;;;16.90;89.30;;;;;;2073479;28;20054;-84
2021/07/17 04:01:38;;;;;;;10.48;3.95;;;16.90;89.40;;;;;;2065389;28;20026;-84
2021/07/17 04:02:43;;;;;;;10.90;3.97;;;16.90;89.40;;;;;;2055666;28;20058;-85
2021/07/17 04:03:47;;;;;;;8.77;3.97;;;16.90;89.40;;;;;;2065792;28;20038;-84
2021/07/17 04:04:49;;;;;;;8.88;3.97;;;16.90;89.50;;;;;;2057842;28;20026;-85
2021/07/17 04:05:49;;;;;;;8.63;3.83;;;16.90;89.80;;;;;;2057599;28;20023;-85
2021/07/17 04:06:50;;;;;;;7.85;3.63;;;16.90;89.50;;;;;;2041676;28;20031;-85
2021/07/17 04:07:51;;;;;;;9.98;3.70;;;16.90;89.50;;;;;;2041239;29;20047;-84
2021/07/17 04:08:51;;;;;;;9.77;3.65;;;16.80;89.50;;;;;;2049278;29;20039;-84
2021/07/17 04:09:52;;;;;;;9.55;3.85;;;16.80;89.50;;;;;;2064466;28;20022;-85
2021/07/17 04:10:53;;;;;;;8.60;3.67;;;16.80;89.50;;;;;;2065035;28;20077;-84
2021/07/17 04:11:53;;;;;;;9.63;3.83;;;16.80;89.60;;;;;;2057254;28;20030;-85
2021/07/17 04:12:54;;;;;;;6.80;3.38;;;16.80;89.60;;;;;;2049833;28;20035;-84
2021/07/17 04:13:55;;;;;;;7.00;3.50;;;16.90;89.60;;;;;;2057116;28;20054;-84
2021/07/17 04:14:55;;;;;;;9.82;4.20;;;16.90;89.60;;;;;;2060266;28;20093;-84
2021/07/17 04:15:56;;;;;;;8.88;3.88;;;16.80;89.60;;;;;;2057093;28;20041;-84
2021/07/17 04:16:57;;;;;;;7.95;3.55;;;16.90;89.60;;;;;;2057180;28;20034;-84
2021/07/17 04:17:57;;;;;;;7.50;3.60;;;16.80;89.60;;;;;;2033348;29;20063;-86
2021/07/17 04:18:58;;;;;;;8.15;3.55;;;16.90;89.60;;;;;;2057325;28;20023;-84
2021/07/17 04:19:59;;;;;;;9.10;3.47;;;16.90;89.60;;;;;;2073359;28;20495;-84
2021/07/17 04:21:00;;;;;;;9.65;3.70;;;16.90;90.10;;;;;;2065279;28;20061;-85
2021/07/17 04:22:00;;;;;;;8.57;3.90;;;16.90;89.60;;;;;;2057167;28;20121;-84
2021/07/17 04:23:02;;;;;;;8.10;3.50;;;16.90;89.60;;;;;;2049006;29;20034;-84
2021/07/17 04:24:02;;;;;;;8.43;3.58;;;16.90;89.60;;;;;;2065164;28;20119;-84
2021/07/17 04:25:05;;;;;;;9.25;3.65;;;16.80;89.60;;;;;;2048819;29;20035;-84
2021/07/17 04:26:05;;;;;;;9.35;3.65;;;16.80;89.70;;;;;;2057242;28;20026;-84
2021/07/17 04:27:06;;;;;;;9.73;3.97;;;16.80;89.70;;;;;;2056757;28;20061;-85
2021/07/17 04:28:07;;;;;;;9.60;4.20;;;16.80;89.80;;;;;;2072973;28;20030;-84
2021/07/17 04:29:07;;;;;;;9.35;3.60;;;16.80;89.80;;;;;;2064687;28;20416;-84
2021/07/17 04:30:10;;;;;;;10.13;4.10;;;16.90;89.80;;;;;;2049108;29;20111;-84
2021/07/17 04:31:10;;;;;;;8.32;3.47;;;16.80;89.80;;;;;;2049584;28;20034;-84
2021/07/17 04:32:11;;;;;;;6.80;3.40;;;16.80;89.80;;;;;;2057131;28;20050;-84
2021/07/17 04:33:12;;;;;;;9.50;4.00;;;16.90;89.70;;;;;;2065023;28;20129;-84
2021/07/17 04:34:12;;;;;;;10.15;3.80;;;16.90;89.70;;;;;;2049206;28;20027;-84
2021/07/17 04:35:13;;;;;;;10.35;3.97;;;16.90;89.70;;;;;;2040939;29;20510;-84
2021/07/17 04:36:14;;;;;;;8.50;3.70;;;16.90;89.70;;;;;;2049071;28;20061;-85
2021/07/17 04:37:16;;;;;;;7.00;3.40;;;16.90;89.70;;;;;;2059093;28;20031;-84
2021/07/17 04:38:17;;;;;;;8.45;3.65;;;16.90;89.70;;;;;;2081277;28;20042;-84
2021/07/17 04:39:18;;;;;;;11.35;3.75;;;16.90;89.60;;;;;;2064731;28;20030;-84
2021/07/17 04:40:18;;;;;;;11.75;4.18;;;16.90;89.50;;;;;;2057040;28;20023;-84
2021/07/17 04:41:19;;;;;;;9.68;4.28;;;16.90;89.50;;;;;;2057083;28;20034;-84
2021/07/17 04:42:20;;;;;;;8.43;3.47;;;16.90;89.50;;;;;;2065120;28;20048;-84
2021/07/17 04:43:20;;;;;;;9.38;4.03;;;16.90;89.50;;;;;;2073004;28;20603;-84
2021/07/17 04:44:21;;;;;;;9.85;3.80;;;16.90;89.50;;;;;;2073082;28;20049;-85
2021/07/17 04:45:21;;;;;;;9.10;3.58;;;16.90;89.50;;;;;;2056891;28;20030;-85
2021/07/17 04:46:22;;;;;;;7.32;3.50;;;16.90;89.50;;;;;;2057015;28;20031;-84
2021/07/17 04:47:23;;;;;;;7.35;3.78;;;16.90;90.00;;;;;;2065099;28;20125;-84
2021/07/17 04:48:24;;;;;;;7.75;3.90;;;16.90;89.60;;;;;;2064775;28;20508;-85
2021/07/17 04:49:24;;;;;;;7.50;3.55;;;17.00;89.60;;;;;;2064848;28;20146;-84
2021/07/17 04:50:25;;;;;;;8.40;3.97;;;17.00;89.50;;;;;;2057006;28;20019;-84
2021/07/17 04:51:26;;;;;;;8.27;3.90;;;17.00;89.50;;;;;;2056917;28;20521;-84
2021/07/17 04:52:26;;;;;;;10.00;4.63;;;17.00;89.50;;;;;;2064978;28;20505;-84
2021/07/17 04:53:27;;;;;;;8.00;4.07;;;17.00;89.50;;;;;;2056754;28;20019;-84
2021/07/17 04:54:28;;;;;;;9.60;4.00;;;17.00;89.50;;;;;;2059150;28;20090;-85
2021/07/17 04:55:29;;;;;;;7.63;3.70;;;17.00;89.40;;;;;;2073300;28;20570;-84
2021/07/17 04:56:29;;;;;;;7.55;3.72;;;17.00;89.50;;;;;;2065151;28;20069;-85
2021/07/17 04:57:30;;;;;;;8.10;3.90;;;17.00;89.50;;;;;;2057234;28;20023;-84
2021/07/17 04:58:31;;;;;;;10.18;3.97;;;17.00;89.50;;;;;;2066470;28;20539;-84
2021/07/17 04:59:31;;;;;;;8.68;3.97;;;17.00;89.50;;;;;;2064991;28;20026;-84
2021/07/17 05:00:32;;;;;;;9.90;3.72;;;17.00;89.50;;;;;;2053884;28;20066;-84
2021/07/17 05:01:33;;;;;;;8.18;4.05;;;17.00;89.40;;;;;;2064966;28;20022;-85
2021/07/17 05:02:54;;;;;;;6.78;3.60;;;17.10;89.40;;;;;;2068339;28;20030;-85
2021/07/17 05:03:54;;;;;;;7.05;3.50;;;17.10;89.40;;;;;;2081354;28;20061;-84
2021/07/17 05:04:55;;;;;;;9.77;3.88;;;17.10;89.40;;;;;;2056876;28;20397;-85
2021/07/17 05:05:56;;;;;;;8.18;3.55;;;17.10;89.30;;;;;;2056777;28;20038;-85
2021/07/17 05:06:56;;;;;;;8.70;3.78;;;17.10;89.30;;;;;;2064912;28;20031;-84
2021/07/17 05:07:57;;;;;;;6.90;3.53;;;17.10;89.30;;;;;;2064584;28;20092;-84
2021/07/17 05:08:58;;;;;;;7.93;3.85;;;17.10;89.30;;;;;;2072303;28;20026;-85
2021/07/17 05:09:58;;;;;;;7.35;3.58;;;17.20;89.40;;;;;;2065233;28;20481;-86
2021/07/17 05:10:59;;;;;;;8.07;3.80;;;17.20;89.30;;;;;;2056393;28;20117;-85
2021/07/17 05:11:59;;;;;;;9.10;4.25;;;17.20;89.30;;;;;;2056639;28;20417;-85
2021/07/17 05:13:10;;;;;;;9.60;3.72;;;17.20;89.30;;;;;;2064842;28;20416;-83
2021/07/17 05:14:11;;;;;;;;;;;17.20;89.20;;;;;;2067846;28;20031;-84
2021/07/17 05:15:13;;;;;;;8.13;3.65;;;17.20;89.10;;;;;;2063967;28;19917;-85
2021/07/17 05:16:14;;;;;;;9.77;3.50;;;17.30;89.20;;;;;;2073026;28;20550;-83
2021/07/17 05:17:14;;;;;;;6.50;3.60;;;17.30;89.00;;;;;;2076228;28;20032;-82
2021/07/17 05:18:15;;;;;;;6.60;3.65;;;17.30;89.00;;;;;;2073676;28;20897;-82